TDCF/DCF METAR and TAF weather

Enter ICAO airport designator
Station Type Date Time Source
TDCF METAR 2019/11/17 22:00 UTC NOAA

TDCF 172200Z 16002KT 9999 FEW014 25/25 Q1007


Station Type Date Time Source
TDCF Decoded METAR 2019/11/17 22:00 UTC NOAA

Canefield Airport, Dominica (TDCF) 15-32N 061-24W 5M
Nov 17, 2019 - 05:00 PM EST / 2019.11.17 2200 UTC
Wind: from the SSE (160 degrees) at 2 MPH (2 KT):0
Visibility: greater than 7 mile(s):0
Sky conditions: mostly clear
Temperature: 77 F (25 C)
Dew Point: 77 F (25 C)
Relative Humidity: 100%
Pressure (altimeter): 29.74 in. Hg (1007 hPa)
ob: TDCF 172200Z 16002KT 9999 FEW014 25/25 Q1007
cycle: 22

Station Type Date Time Source
TDCF TAF 2012/05/01 18:15 UTC NOAA

TAF TDCF 011600Z 0118/0218 110010KT 9999 SCT018 BKN030
TEMPO 0118/0206 6000 SHRA BKN014 BKN070

Example: see airport list